createdAt,value
2019-05-18T00:02:00.972Z,38.06
2019-05-18T00:04:34.442Z,38.05
2019-05-18T00:07:07.758Z,37.70
2019-05-18T00:09:41.142Z,37.90
2019-05-18T00:12:14.481Z,37.51
2019-05-18T00:14:47.960Z,37.84
2019-05-18T00:17:25.275Z,37.91
2019-05-18T00:19:56.681Z,37.73
2019-05-18T00:22:30.020Z,37.87
2019-05-18T00:25:05.210Z,37.71
2019-05-18T00:27:38.651Z,37.89
2019-05-18T00:30:11.967Z,37.95
2019-05-18T00:32:45.403Z,37.97
2019-05-18T00:35:18.793Z,37.57
2019-05-18T00:37:52.141Z,37.85
2019-05-18T00:40:25.471Z,37.94
2019-05-18T00:42:58.948Z,37.95
2019-05-18T00:45:32.268Z,37.99
2019-05-18T00:48:05.610Z,37.77
2019-05-18T00:50:39.002Z,37.93
2019-05-18T00:53:12.313Z,37.98
2019-05-18T00:55:45.670Z,38.01
2019-05-18T00:58:18.981Z,38.00
2019-05-18T01:00:53.405Z,38.09
2019-05-18T01:03:26.716Z,37.83
2019-05-18T01:06:00.088Z,38.01
2019-05-18T01:08:33.707Z,37.82
2019-05-18T01:11:07.651Z,37.99
2019-05-18T01:13:42.631Z,38.01
2019-05-18T01:16:15.991Z,38.08
2019-05-18T01:18:49.304Z,38.16
2019-05-18T01:21:22.755Z,38.19
2019-05-18T01:23:56.138Z,38.23
2019-05-18T01:26:29.695Z,38.26
2019-05-18T01:29:03.517Z,38.28
2019-05-18T01:31:36.881Z,38.33
2019-05-18T01:34:10.195Z,38.33
2019-05-18T01:36:43.809Z,38.03
2019-05-18T01:39:17.140Z,38.20
2019-05-18T01:41:50.615Z,38.23
2019-05-18T01:44:23.981Z,38.27
2019-05-18T01:46:57.301Z,37.75
2019-05-18T01:49:30.723Z,38.03
2019-05-18T01:52:05.202Z,38.09
2019-05-18T01:54:38.613Z,38.14
2019-05-18T01:57:12.139Z,38.22
2019-05-18T01:59:45.484Z,38.22
2019-05-18T02:02:18.834Z,38.28
2019-05-18T02:04:52.237Z,38.26
2019-05-18T02:07:25.571Z,38.25
2019-05-18T02:09:58.927Z,38.29
2019-05-18T02:12:33.825Z,38.34
2019-05-18T02:15:08.019Z,38.16
2019-05-18T02:17:41.320Z,38.29
2019-05-18T02:20:14.734Z,38.34
2019-05-18T02:22:48.032Z,38.34
2019-05-18T02:25:21.397Z,38.38
2019-05-18T02:27:54.593Z,38.34
2019-05-18T02:30:27.923Z,38.37
2019-05-18T02:33:01.250Z,38.37
2019-05-18T02:35:34.609Z,38.40
2019-05-18T02:38:07.909Z,38.16
2019-05-18T02:40:41.249Z,38.35
2019-05-18T02:43:15.271Z,38.40
2019-05-18T02:45:48.587Z,38.43
2019-05-18T02:48:21.967Z,38.41
2019-05-18T02:50:56.353Z,38.41
2019-05-18T02:53:29.689Z,38.34
2019-05-18T02:56:03.009Z,38.40
2019-05-18T02:58:36.373Z,38.40
2019-05-18T03:01:09.675Z,38.46
2019-05-18T03:03:43.038Z,38.49
2019-05-18T03:06:16.187Z,38.46
2019-05-18T03:08:49.521Z,38.46
2019-05-18T03:11:22.906Z,38.51
2019-05-18T03:13:56.250Z,38.06
2019-05-18T03:16:29.564Z,38.30
2019-05-18T03:19:08.313Z,38.42
2019-05-18T03:21:37.971Z,38.43
2019-05-18T03:24:12.411Z,38.45
2019-05-18T03:26:45.727Z,38.56
2019-05-18T03:29:19.062Z,38.60
2019-05-18T03:31:52.383Z,38.48
2019-05-18T03:34:25.760Z,38.65
2019-05-18T03:36:59.073Z,38.97
2019-05-18T03:39:32.410Z,38.90
2019-05-18T03:42:05.731Z,38.73
2019-05-18T03:44:39.103Z,38.58
2019-05-18T03:47:12.474Z,38.49
2019-05-18T03:49:46.986Z,38.33
2019-05-18T03:52:20.286Z,38.37
2019-05-18T03:54:53.631Z,38.35
2019-05-18T03:57:26.927Z,38.36
2019-05-18T04:00:00.296Z,38.37
2019-05-18T04:02:33.594Z,38.35
2019-05-18T04:05:07.186Z,38.14
2019-05-18T04:07:40.514Z,37.95
2019-05-18T04:10:13.875Z,37.68
2019-05-18T04:12:47.270Z,37.55
2019-05-18T04:15:20.660Z,36.89
2019-05-18T04:17:53.961Z,37.06
2019-05-18T04:20:27.382Z,36.97
2019-05-18T04:23:00.689Z,36.96
2019-05-18T04:25:34.044Z,36.94
2019-05-18T04:28:07.401Z,36.99
2019-05-18T04:30:40.756Z,36.91
2019-05-18T04:33:14.118Z,36.94
2019-05-18T04:35:47.503Z,36.94
2019-05-18T04:38:20.826Z,36.92
2019-05-18T04:40:54.195Z,36.96
2019-05-18T04:43:27.518Z,36.88
2019-05-18T04:46:01.523Z,36.85
2019-05-18T04:48:34.847Z,36.69
2019-05-18T04:51:10.226Z,36.74
2019-05-18T04:53:43.607Z,36.70
2019-05-18T04:56:16.969Z,36.69
2019-05-18T04:58:50.639Z,36.64
2019-05-18T05:01:24.082Z,36.05
2019-05-18T05:03:57.468Z,36.42
2019-05-18T05:06:30.839Z,36.09
2019-05-18T05:09:06.389Z,36.53
2019-05-18T05:11:39.989Z,36.59
2019-05-18T05:14:14.378Z,36.51
2019-05-18T05:16:47.734Z,36.61
2019-05-18T05:19:21.039Z,36.63
2019-05-18T05:21:54.410Z,36.64
2019-05-18T05:24:27.914Z,36.63
2019-05-18T05:27:02.820Z,36.70
2019-05-18T05:29:36.274Z,36.69
2019-05-18T05:32:09.819Z,36.71
2019-05-18T05:34:43.553Z,36.24
2019-05-18T05:37:16.873Z,36.50
2019-05-18T05:39:50.281Z,36.50
2019-05-18T05:42:23.637Z,36.34
2019-05-18T05:44:56.993Z,36.62
2019-05-18T05:47:30.626Z,36.45
2019-05-18T05:50:07.519Z,36.68
2019-05-18T05:52:42.120Z,36.74
2019-05-18T05:55:15.510Z,36.72
2019-05-18T05:57:48.830Z,36.82
2019-05-18T06:00:22.201Z,36.74
2019-05-18T06:02:55.517Z,36.85
2019-05-18T06:05:28.879Z,36.95
2019-05-18T06:08:02.185Z,37.00
2019-05-18T06:10:35.564Z,37.10
2019-05-18T06:13:08.888Z,37.11
2019-05-18T06:15:43.041Z,37.04
2019-05-18T06:18:17.399Z,37.00
2019-05-18T06:20:51.952Z,37.23
2019-05-18T06:23:25.708Z,37.11
2019-05-18T06:25:59.152Z,37.11
2019-05-18T06:28:32.545Z,36.63
2019-05-18T06:31:05.897Z,36.91
2019-05-18T06:33:39.340Z,36.84
2019-05-18T06:36:12.663Z,37.03
2019-05-18T06:38:46.430Z,37.00
2019-05-18T06:41:20.402Z,36.66
2019-05-18T06:43:53.764Z,37.04
2019-05-18T06:46:27.317Z,36.85
2019-05-18T06:49:00.657Z,37.11
2019-05-18T06:51:34.042Z,37.18
2019-05-18T06:54:07.530Z,37.25
2019-05-18T06:56:40.840Z,37.19
2019-05-18T06:59:16.448Z,37.27
2019-05-18T07:01:49.907Z,36.93
2019-05-18T07:04:23.465Z,37.03
2019-05-18T07:06:56.795Z,37.00
2019-05-18T07:09:30.114Z,37.07
2019-05-18T07:12:03.751Z,37.02
2019-05-18T07:14:37.091Z,36.77
2019-05-18T07:17:10.437Z,37.02
2019-05-18T07:19:43.798Z,37.15
2019-05-18T07:22:17.172Z,37.32
2019-05-18T07:24:50.483Z,37.39
2019-05-18T07:27:23.849Z,37.47
2019-05-18T07:29:57.255Z,37.36
2019-05-18T07:32:30.673Z,37.42
2019-05-18T07:35:04.370Z,37.39
2019-05-18T07:37:37.743Z,36.62
2019-05-18T07:40:11.449Z,37.08
2019-05-18T07:42:44.861Z,36.63
2019-05-18T07:45:18.257Z,37.21
2019-05-18T07:47:51.596Z,37.23
2019-05-18T07:50:26.053Z,37.33
2019-05-18T07:52:59.397Z,37.48
2019-05-18T07:55:32.746Z,37.53
2019-05-18T07:58:06.060Z,37.60
2019-05-18T08:00:39.755Z,37.56
2019-05-18T08:03:13.130Z,37.42
2019-05-18T08:05:46.460Z,37.43
2019-05-18T08:08:19.783Z,37.10
2019-05-18T08:10:53.238Z,37.15
2019-05-18T08:13:26.563Z,37.08
2019-05-18T08:15:59.903Z,37.07
2019-05-18T08:18:33.269Z,37.13
2019-05-18T08:21:06.746Z,37.02
2019-05-18T08:23:40.138Z,36.90
2019-05-18T08:26:13.553Z,36.85
2019-05-18T08:28:46.925Z,36.60
2019-05-18T08:31:20.239Z,36.61
2019-05-18T08:33:54.867Z,36.66
2019-05-18T08:36:28.754Z,36.71
2019-05-18T08:39:02.536Z,36.80
2019-05-18T08:41:36.118Z,36.83
2019-05-18T08:44:09.435Z,36.78
2019-05-18T08:46:42.804Z,36.54
2019-05-18T08:49:16.331Z,36.00
2019-05-18T08:51:49.766Z,36.62
2019-05-18T08:54:23.077Z,36.57
2019-05-18T08:56:56.431Z,35.88
2019-05-18T08:59:29.793Z,36.30
2019-05-18T09:02:03.151Z,35.76
2019-05-18T09:04:36.513Z,36.26
2019-05-18T09:07:09.902Z,36.38
2019-05-18T09:09:43.275Z,36.43
2019-05-18T09:12:16.606Z,36.41
2019-05-18T09:14:50.122Z,36.54
2019-05-18T09:17:23.499Z,36.54
2019-05-18T09:19:56.810Z,36.64
2019-05-18T09:22:30.149Z,36.08
2019-05-18T09:25:07.047Z,36.34
2019-05-18T09:27:40.398Z,36.30
2019-05-18T09:30:13.861Z,36.44
2019-05-18T09:32:47.179Z,36.40
2019-05-18T09:35:21.763Z,36.27
2019-05-18T09:37:55.143Z,36.40
2019-05-18T09:40:30.129Z,36.31
2019-05-18T09:43:03.486Z,36.34
2019-05-18T09:45:36.790Z,36.33
2019-05-18T09:48:10.208Z,36.41
2019-05-18T09:50:45.119Z,36.49
2019-05-18T09:53:19.546Z,36.49
2019-05-18T09:55:52.864Z,36.44
2019-05-18T09:58:26.205Z,36.48
2019-05-18T10:00:59.526Z,36.45
2019-05-18T10:03:32.921Z,35.85
2019-05-18T10:06:06.269Z,36.24
2019-05-18T10:08:40.173Z,36.37
2019-05-18T10:11:13.541Z,36.51
2019-05-18T10:13:46.939Z,36.49
2019-05-18T10:16:20.287Z,36.10
2019-05-18T10:18:54.677Z,36.30
2019-05-18T10:21:28.108Z,36.40
2019-05-18T10:24:01.421Z,36.42
2019-05-18T10:26:34.773Z,36.45
2019-05-18T10:29:08.106Z,36.09
2019-05-18T10:31:41.436Z,36.20
2019-05-18T10:34:15.006Z,36.24
2019-05-18T10:36:48.390Z,36.29
2019-05-18T10:39:21.709Z,36.26
2019-05-18T10:41:55.068Z,36.24
2019-05-18T10:44:28.584Z,36.28
2019-05-18T10:47:01.967Z,36.25
2019-05-18T10:49:35.297Z,35.78
2019-05-18T10:52:09.731Z,36.13
2019-05-18T10:54:43.078Z,36.11
2019-05-18T10:57:16.394Z,35.44
2019-05-18T10:59:49.998Z,35.77
2019-05-18T11:02:23.312Z,36.04
2019-05-18T11:04:57.373Z,36.08
2019-05-18T11:07:30.693Z,36.14
2019-05-18T11:10:06.170Z,36.17
2019-05-18T11:12:39.468Z,36.13
2019-05-18T11:15:12.821Z,36.29
2019-05-18T11:17:46.421Z,36.27
2019-05-18T11:20:19.827Z,36.23
2019-05-18T11:22:53.168Z,36.24
2019-05-18T11:25:26.490Z,36.24
2019-05-18T11:28:00.343Z,36.25
2019-05-18T11:30:33.699Z,36.34
2019-05-18T11:33:07.037Z,36.25
2019-05-18T11:35:40.485Z,36.20
2019-05-18T11:38:13.927Z,36.38
2019-05-18T11:40:47.283Z,36.48
2019-05-18T11:43:20.606Z,36.24
2019-05-18T11:45:53.969Z,36.34
2019-05-18T11:48:27.271Z,36.47
2019-05-18T11:51:00.648Z,36.41
2019-05-18T11:53:34.005Z,36.30
2019-05-18T11:56:07.315Z,36.47
2019-05-18T11:58:40.647Z,36.36
2019-05-18T12:01:13.970Z,36.40
2019-05-18T12:03:47.331Z,36.19
2019-05-18T12:06:21.708Z,36.25
2019-05-18T12:08:58.492Z,36.36
2019-05-18T12:11:30.058Z,36.50
2019-05-18T12:14:03.453Z,36.52
2019-05-18T12:16:36.871Z,36.44
2019-05-18T12:19:10.204Z,36.62
2019-05-18T12:21:43.608Z,36.73
2019-05-18T12:24:17.109Z,36.65
2019-05-18T12:26:50.457Z,36.39
2019-05-18T12:29:23.796Z,36.28
2019-05-18T12:31:57.428Z,36.30
2019-05-18T12:34:30.787Z,36.32
2019-05-18T12:37:04.119Z,36.30
2019-05-18T12:39:37.623Z,36.23
2019-05-18T12:42:11.178Z,36.11
2019-05-18T12:44:44.562Z,35.32
2019-05-18T12:47:17.861Z,35.65
2019-05-18T12:49:51.225Z,35.63
2019-05-18T12:52:25.269Z,35.55
2019-05-18T12:54:58.971Z,35.55
2019-05-18T12:57:32.302Z,35.50
2019-05-18T13:00:07.884Z,35.71
2019-05-18T13:02:41.284Z,35.67
2019-05-18T13:05:14.813Z,35.85
2019-05-18T13:07:48.153Z,35.88
2019-05-18T13:10:21.519Z,36.01
2019-05-18T13:12:54.841Z,36.03
2019-05-18T13:15:28.280Z,36.12
2019-05-18T13:18:01.704Z,36.25
2019-05-18T13:20:35.109Z,36.35
2019-05-18T13:23:08.489Z,36.25
2019-05-18T13:25:42.630Z,36.32
2019-05-18T13:28:16.529Z,36.38
2019-05-18T13:30:49.910Z,36.55
2019-05-18T13:33:23.224Z,36.69
2019-05-18T13:35:56.766Z,36.68
2019-05-18T13:38:30.112Z,36.60
2019-05-18T13:41:03.633Z,35.97
2019-05-18T13:43:38.015Z,36.26
2019-05-18T13:46:11.376Z,36.42
2019-05-18T13:48:44.977Z,36.39
2019-05-18T13:51:18.407Z,36.44
2019-05-18T13:53:53.351Z,36.18
2019-05-18T13:56:26.689Z,36.36
2019-05-18T13:59:00.039Z,36.41
2019-05-18T14:01:33.540Z,36.17
2019-05-18T14:04:07.134Z,36.50
2019-05-18T14:06:40.445Z,36.39
2019-05-18T14:09:13.836Z,35.81
2019-05-18T14:11:47.112Z,36.23
2019-05-18T14:14:20.452Z,36.44
2019-05-18T14:16:53.822Z,36.46
2019-05-18T14:19:27.198Z,36.54
2019-05-18T14:22:00.513Z,36.11
2019-05-18T14:24:33.856Z,36.35
2019-05-18T14:27:07.166Z,36.42
2019-05-18T14:29:40.517Z,36.47
2019-05-18T14:32:13.925Z,36.51
2019-05-18T14:34:47.271Z,36.57
2019-05-18T14:37:20.578Z,36.58
2019-05-18T14:39:54.074Z,36.63
2019-05-18T14:42:27.411Z,36.60
2019-05-18T14:45:00.799Z,36.68
2019-05-18T14:47:34.995Z,36.68
2019-05-18T14:50:09.397Z,36.17
2019-05-18T14:52:42.801Z,36.46
2019-05-18T14:55:16.159Z,36.56
2019-05-18T14:57:49.461Z,36.05
2019-05-18T15:00:22.886Z,36.38
2019-05-18T15:02:56.213Z,36.60
2019-05-18T15:05:29.598Z,36.66
2019-05-18T15:08:02.940Z,36.63
2019-05-18T15:10:36.331Z,36.57
2019-05-18T15:13:09.768Z,36.55
2019-05-18T15:15:43.137Z,36.61
2019-05-18T15:18:16.496Z,36.24
2019-05-18T15:20:49.844Z,36.54
2019-05-18T15:23:23.186Z,36.57
2019-05-18T15:25:56.534Z,36.67
2019-05-18T15:28:30.153Z,36.55
2019-05-18T15:31:03.589Z,36.32
2019-05-18T15:33:36.966Z,36.51
2019-05-18T15:36:11.514Z,36.54
2019-05-18T15:38:45.140Z,36.16
2019-05-18T15:41:18.499Z,36.44
2019-05-18T15:43:51.890Z,36.47
2019-05-18T15:46:25.379Z,36.51
2019-05-18T15:48:58.861Z,36.53
2019-05-18T15:51:32.492Z,36.46
2019-05-18T15:54:05.841Z,36.59
2019-05-18T15:56:39.429Z,36.69
2019-05-18T15:59:12.841Z,36.91
2019-05-18T16:01:46.224Z,37.19
2019-05-18T16:04:20.282Z,37.30
2019-05-18T16:06:53.874Z,37.42
2019-05-18T16:09:27.277Z,37.53
2019-05-18T16:12:00.619Z,37.70
2019-05-18T16:14:34.018Z,37.80
2019-05-18T16:17:07.381Z,38.09
2019-05-18T16:19:40.767Z,38.10
2019-05-18T16:22:14.180Z,38.45
2019-05-18T16:24:47.522Z,38.43
2019-05-18T16:27:22.526Z,38.19
2019-05-18T16:29:56.041Z,38.46
2019-05-18T16:32:29.613Z,38.45
2019-05-18T16:35:05.818Z,38.55
2019-05-18T16:37:39.168Z,38.50
2019-05-18T16:40:13.786Z,38.05
2019-05-18T16:42:47.305Z,38.48
2019-05-18T16:45:20.695Z,38.53
2019-05-18T16:47:54.133Z,38.01
2019-05-18T16:50:27.602Z,38.27
2019-05-18T16:53:01.070Z,38.25
2019-05-18T16:55:34.435Z,38.62
2019-05-18T16:58:07.751Z,38.53
2019-05-18T17:00:41.228Z,38.69
2019-05-18T17:03:14.623Z,38.72
2019-05-18T17:05:48.175Z,38.66
2019-05-18T17:08:22.389Z,38.51
2019-05-18T17:10:55.752Z,38.42
2019-05-18T17:13:29.072Z,38.25
2019-05-18T17:16:04.030Z,38.29
2019-05-18T17:18:37.382Z,38.29
2019-05-18T17:21:10.970Z,37.85
2019-05-18T17:23:44.309Z,38.13
2019-05-18T17:26:17.943Z,38.17
2019-05-18T17:28:51.283Z,37.63
2019-05-18T17:31:24.620Z,37.83
2019-05-18T17:33:57.947Z,37.72
2019-05-18T17:36:31.474Z,37.88
2019-05-18T17:39:05.739Z,38.16
2019-05-18T17:41:39.122Z,37.62
2019-05-18T17:44:12.671Z,38.10
2019-05-18T17:46:46.069Z,38.10
2019-05-18T17:49:26.854Z,38.05
2019-05-18T17:51:54.484Z,38.23
2019-05-18T17:54:27.795Z,38.30
2019-05-18T17:57:08.336Z,38.19
2019-05-18T17:59:36.178Z,38.08
2019-05-18T18:02:09.542Z,37.68
2019-05-18T18:04:44.455Z,37.92
2019-05-18T18:07:17.799Z,38.10
2019-05-18T18:09:51.128Z,38.14
2019-05-18T18:12:24.554Z,38.19
2019-05-18T18:14:57.931Z,38.16
2019-05-18T18:17:32.334Z,38.48
2019-05-18T18:20:06.060Z,39.24
2019-05-18T18:22:39.447Z,39.64
2019-05-18T18:25:12.756Z,40.03
2019-05-18T18:27:46.132Z,40.33
2019-05-18T18:30:19.668Z,40.45
2019-05-18T18:32:53.039Z,40.60
2019-05-18T18:35:26.378Z,40.32
2019-05-18T18:37:59.850Z,40.70
2019-05-18T18:40:34.528Z,40.80
2019-05-18T18:43:08.608Z,40.94
2019-05-18T18:45:44.345Z,41.10
2019-05-18T18:48:17.929Z,40.96
2019-05-18T18:50:51.290Z,41.18
2019-05-18T18:53:24.598Z,41.30
2019-05-18T18:55:58.010Z,41.41
2019-05-18T18:58:31.567Z,41.45
2019-05-18T19:01:04.916Z,41.34
2019-05-18T19:03:38.428Z,41.44
2019-05-18T19:06:11.907Z,41.56
2019-05-18T19:08:45.348Z,41.40
2019-05-18T19:11:18.918Z,41.29
2019-05-18T19:13:52.271Z,41.31
2019-05-18T19:16:25.643Z,41.09
2019-05-18T19:18:58.988Z,40.98
2019-05-18T19:21:32.587Z,40.88
2019-05-18T19:24:05.920Z,40.78
2019-05-18T19:26:39.384Z,40.72
2019-05-18T19:29:12.717Z,40.63
2019-05-18T19:31:46.094Z,40.71
2019-05-18T19:34:19.434Z,40.28
2019-05-18T19:36:52.781Z,40.58
2019-05-18T19:39:26.129Z,40.59
2019-05-18T19:41:59.577Z,40.68
2019-05-18T19:44:32.972Z,41.00
2019-05-18T19:47:06.648Z,40.71
2019-05-18T19:49:40.431Z,40.66
2019-05-18T19:52:14.998Z,40.84
2019-05-18T19:54:48.337Z,40.53
2019-05-18T19:57:21.844Z,40.88
2019-05-18T19:59:55.198Z,41.17
2019-05-18T20:02:28.548Z,41.31
2019-05-18T20:05:08.031Z,41.49
2019-05-18T20:07:36.935Z,41.52
2019-05-18T20:10:11.547Z,41.31
2019-05-18T20:12:45.882Z,41.15
2019-05-18T20:15:19.196Z,41.16
2019-05-18T20:17:52.553Z,41.18
2019-05-18T20:20:26.068Z,41.19
2019-05-18T20:23:00.984Z,41.09
2019-05-18T20:25:34.353Z,41.04
2019-05-18T20:28:07.754Z,40.50
2019-05-18T20:30:41.163Z,40.77
2019-05-18T20:33:14.496Z,40.68
2019-05-18T20:35:48.167Z,40.76
2019-05-18T20:38:21.490Z,40.80
2019-05-18T20:40:54.817Z,40.40
2019-05-18T20:43:28.264Z,40.64
2019-05-18T20:46:01.627Z,40.63
2019-05-18T20:48:35.745Z,40.68
2019-05-18T20:51:09.152Z,40.68
2019-05-18T20:53:42.541Z,40.51
2019-05-18T20:56:15.890Z,40.59
2019-05-18T20:58:49.472Z,40.81
2019-05-18T21:01:23.639Z,40.24
2019-05-18T21:03:56.960Z,40.60
2019-05-18T21:06:30.320Z,40.57
2019-05-18T21:09:04.514Z,40.63
2019-05-18T21:11:39.037Z,40.60
2019-05-18T21:14:12.387Z,40.08
2019-05-18T21:16:45.725Z,40.41
2019-05-18T21:19:19.329Z,40.39
2019-05-18T21:21:52.667Z,39.88
2019-05-18T21:24:26.188Z,40.22
2019-05-18T21:26:59.500Z,40.02
2019-05-18T21:29:32.834Z,40.23
2019-05-18T21:32:06.157Z,40.32
2019-05-18T21:34:39.518Z,39.92
2019-05-18T21:37:12.875Z,40.14
2019-05-18T21:39:46.223Z,40.20
2019-05-18T21:42:19.525Z,40.56
2019-05-18T21:44:52.887Z,40.28
2019-05-18T21:47:26.206Z,40.35
2019-05-18T21:49:59.572Z,40.32
2019-05-18T21:52:32.883Z,40.33
2019-05-18T21:55:06.226Z,39.75
2019-05-18T21:57:39.543Z,40.13
2019-05-18T22:00:12.950Z,40.20
2019-05-18T22:02:47.893Z,40.31
2019-05-18T22:05:21.268Z,40.38
2019-05-18T22:07:54.658Z,39.88
2019-05-18T22:10:28.022Z,40.22
2019-05-18T22:13:01.345Z,40.33
2019-05-18T22:15:34.735Z,39.76
2019-05-18T22:18:22.193Z,40.14
2019-05-18T22:20:44.429Z,40.26
2019-05-18T22:23:17.930Z,40.32
2019-05-18T22:25:51.647Z,40.34
2019-05-18T22:28:24.980Z,39.87
2019-05-18T22:30:58.341Z,40.13
2019-05-18T22:33:31.659Z,39.94
2019-05-18T22:36:05.037Z,40.25
2019-05-18T22:38:38.375Z,40.29
2019-05-18T22:41:11.751Z,39.87
2019-05-18T22:43:45.085Z,40.20
2019-05-18T22:46:18.420Z,40.22
2019-05-18T22:48:51.854Z,40.32
2019-05-18T22:51:25.220Z,40.33
2019-05-18T22:53:58.547Z,40.12
2019-05-18T22:56:31.929Z,40.31
2019-05-18T22:59:06.729Z,40.32
2019-05-18T23:01:40.097Z,40.35
2019-05-18T23:04:13.524Z,40.41
2019-05-18T23:06:46.864Z,40.21
2019-05-18T23:09:20.256Z,40.34
2019-05-18T23:11:53.610Z,40.37
2019-05-18T23:14:26.915Z,40.42
2019-05-18T23:17:00.247Z,40.41
2019-05-18T23:19:33.566Z,40.51
2019-05-18T23:22:06.916Z,39.92
2019-05-18T23:24:40.236Z,40.28
2019-05-18T23:27:13.578Z,39.93
2019-05-18T23:29:46.942Z,40.06
2019-05-18T23:32:20.283Z,40.19
2019-05-18T23:34:53.596Z,39.61
2019-05-18T23:37:26.947Z,39.98
2019-05-18T23:40:00.495Z,39.75
2019-05-18T23:42:33.834Z,40.00
2019-05-18T23:45:07.192Z,40.12
2019-05-18T23:47:40.542Z,40.08
2019-05-18T23:50:13.868Z,39.99
2019-05-18T23:52:47.237Z,39.89
2019-05-18T23:55:20.546Z,40.01
2019-05-18T23:57:53.885Z,40.19
